KTTN

Trenton Mercer Airport

Trenton, New Jersey, USA
KTTN 251726Z 2518/2618 01005KT P6SM VCSH OVC015 FM252000 06005KT P6SM VCTS OVC035CB TEMPO 2520/2524 4SM -SHRA OVC015 FM260000 16006KT P6SM BKN045 FM260300 18006KT P6SM OVC012 FM260900 19005KT P6SM BKN008 FM261700 23008KT P6SM BKN040
Issued Valid From Valid To
Sep-25 @ 17:26 UTC
(2 hours ago)
Sep-25 @ 18:00 UTC
(an hour ago)
Sep-26 @ 18:00 UTC
(in 23 hours)
Sep-25 @ 18:00 to Sep-25 @ 20:00
KTTN 251726Z 2518/2618 01005KT P6SM VCSH OVC015
Wind Visibility Clouds
10° at 5 knots Greater than 6 miles
  • Overcast at 1,500' AGL
Temporary Sep-25 @ 20:00 to Sep-26 @ 00:00
TEMPO 2520/2524 4SM -SHRA OVC015
Visibility Clouds Conditions
4 miles
  • Overcast at 1,500' AGL
  • Light Rain
From Sep-25 @ 20:00 to Sep-26 @ 00:00
FM252000 06005KT P6SM VCTS OVC035CB
Wind Visibility Clouds Conditions
60° at 5 knots Greater than 6 miles
  • Overcast at 3,500' AGL
  • Area Thunderstorm
From Sep-26 @ 00:00 to Sep-26 @ 03:00
FM260000 16006KT P6SM BKN045
Wind Visibility Clouds
160° at 6 knots Greater than 6 miles
  • Broken at 4,500' AGL
From Sep-26 @ 03:00 to Sep-26 @ 09:00
FM260300 18006KT P6SM OVC012
Wind Visibility Clouds
180° at 6 knots Greater than 6 miles
  • Overcast at 1,200' AGL
From Sep-26 @ 09:00 to Sep-26 @ 17:00
FM260900 19005KT P6SM BKN008
Wind Visibility Clouds
190° at 5 knots Greater than 6 miles
  • Broken at 800' AGL
From Sep-26 @ 17:00 to Sep-26 @ 18:00
FM261700 23008KT P6SM BKN040
Wind Visibility Clouds
230° at 8 knots Greater than 6 miles
  • Broken at 4,000' AGL
KTTN 251726Z 2518/2618 01005KT P6SM VCSH OVC015 FM252000 06005KT P6SM VCTS OVC035CB TEMPO 2520/2524 4SM -SHRA OVC015 FM260000 16006KT P6SM BKN045 FM260300 18006KT P6SM OVC012 FM260900 19005KT P6SM BKN008 FM261700 23008KT P6SM BKN040
Issued Sep-25 @ 17:26 UTC
(2 hours ago)
Valid From Sep-25 @ 18:00 UTC
(an hour ago)
Valid To Sep-26 @ 18:00 UTC
(in 23 hours)
Sep-25 @ 18:00 - Sep-25 @ 20:00
Wind Visibility
10° at 5 knots Greater than 6 miles
Clouds
  • Overcast at 1,500' AGL
Temporary Sep-25 @ 20:00 - Sep-26 @ 00:00
Clouds
  • Overcast at 1,500' AGL
Conditions
  • Light Rain
From Sep-25 @ 20:00 - Sep-26 @ 00:00
Wind Visibility
60° at 5 knots Greater than 6 miles
Clouds
  • Overcast at 3,500' AGL
Conditions
  • Area Thunderstorm
From Sep-26 @ 00:00 - Sep-26 @ 03:00
Wind Visibility
160° at 6 knots Greater than 6 miles
Clouds
  • Broken at 4,500' AGL
From Sep-26 @ 03:00 - Sep-26 @ 09:00
Wind Visibility
180° at 6 knots Greater than 6 miles
Clouds
  • Overcast at 1,200' AGL
From Sep-26 @ 09:00 - Sep-26 @ 17:00
Wind Visibility
190° at 5 knots Greater than 6 miles
Clouds
  • Broken at 800' AGL
From Sep-26 @ 17:00 - Sep-26 @ 18:00
Wind Visibility
230° at 8 knots Greater than 6 miles
Clouds
  • Broken at 4,000' AGL